Time;durP1;ratioP1;P1;durP2;ratioP2;P2;SDS_P1;SDS_P2;PMS_P1;PMS_P2;Temp;Humidity;BMP_temperature;BMP_pressure;BME280_temperature;BME280_humidity;BME280_pressure;Samples;Min_cycle;Max_cycle;Signal;HPM_P1;HPM_P2
2023/01/06 00:04:19;;;;;;;0.08;0.00;;;7.20;93.70;;;;;;21118605;28;20038;-52
2023/01/06 00:14:24;;;;;;;0.08;0.00;;;7.00;93.90;;;;;;21148675;28;20035;-52
2023/01/06 00:24:26;;;;;;;0.10;0.00;;;6.90;94.00;;;;;;21148053;28;20092;-57
2023/01/06 00:34:28;;;;;;;0.25;0.00;;;7.00;93.70;;;;;;21107131;28;20490;-51
2023/01/06 00:44:30;;;;;;;0.00;0.00;;;6.80;93.70;;;;;;21100301;28;20043;-54
2023/01/06 00:54:32;;;;;;;0.10;0.00;;;6.90;93.70;;;;;;21145179;28;20108;-57
2023/01/06 01:04:34;;;;;;;0.10;0.00;;;6.90;93.80;;;;;;21137094;28;20028;-57
2023/01/06 01:14:41;;;;;;;0.00;0.00;;;6.80;94.00;;;;;;21134739;28;20032;-51
2023/01/06 01:24:43;;;;;;;0.00;0.00;;;6.80;94.00;;;;;;21119921;28;20051;-57
2023/01/06 01:34:45;;;;;;;0.00;0.00;;;6.70;94.00;;;;;;21143129;28;20082;-57
2023/01/06 01:45:06;;;;;;;0.00;0.00;;;6.50;94.20;;;;;;21156587;28;20100;-57
2023/01/06 01:55:09;;;;;;;0.00;0.00;;;6.60;94.10;;;;;;21155384;28;20437;-57
2023/01/06 02:05:15;;;;;;;0.80;0.00;;;6.50;94.20;;;;;;21118073;28;20391;-57
2023/01/06 02:15:20;;;;;;;0.28;0.08;;;6.50;94.50;;;;;;21086635;28;20078;-57
2023/01/06 02:25:40;;;;;;;0.00;0.00;;;6.10;94.90;;;;;;21144093;28;20031;-50
2023/01/06 02:36:25;;;;;;;0.00;0.00;;;6.20;95.10;;;;;;21121350;28;20036;-52
2023/01/06 02:46:31;;;;;;;0.10;0.00;;;5.80;96.10;;;;;;21134174;28;20040;-57
2023/01/06 02:56:38;;;;;;;1.17;0.00;;;5.70;95.20;;;;;;21133797;28;20028;-57
2023/01/06 03:06:44;;;;;;;0.00;0.00;;;6.10;94.60;;;;;;21131024;28;20032;-57
2023/01/06 03:16:48;;;;;;;0.00;0.00;;;5.80;95.30;;;;;;21100866;28;20435;-57
2023/01/06 03:26:52;;;;;;;0.00;0.00;;;5.60;95.80;;;;;;21162726;28;20057;-57
2023/01/06 03:37:02;;;;;;;0.00;0.00;;;5.10;97.10;;;;;;21132976;28;20495;-54
2023/01/06 03:47:20;;;;;;;0.00;0.00;;;4.80;97.90;;;;;;21066165;28;20036;-57
2023/01/06 03:57:38;;;;;;;0.00;0.00;;;4.50;98.10;;;;;;21131204;28;20047;-57
2023/01/06 04:07:46;;;;;;;0.00;0.00;;;4.30;98.70;;;;;;21133385;28;20028;-57
2023/01/06 04:17:49;;;;;;;0.00;0.00;;;4.10;99.50;;;;;;21098607;28;20036;-57
2023/01/06 04:27:53;;;;;;;0.20;0.00;;;3.90;99.90;;;;;;21078890;28;20032;-57
2023/01/06 04:37:55;;;;;;;0.08;0.00;;;4.10;98.60;;;;;;21110300;28;20027;-57
2023/01/06 04:47:56;;;;;;;0.00;0.00;;;5.10;96.60;;;;;;21146718;28;20040;-57
2023/01/06 04:57:58;;;;;;;0.00;0.00;;;5.40;96.90;;;;;;21162359;28;20024;-57
2023/01/06 05:08:00;;;;;;;0.00;0.00;;;5.30;96.70;;;;;;21093362;28;20488;-57
2023/01/06 05:18:02;;;;;;;0.00;0.00;;;5.10;97.40;;;;;;21151509;28;20027;-57
2023/01/06 05:28:03;;;;;;;0.00;0.00;;;4.60;97.40;;;;;;21142031;28;20392;-57
2023/01/06 05:38:05;;;;;;;1.27;0.00;;;4.50;97.70;;;;;;21153442;28;20478;-57
2023/01/06 05:48:07;;;;;;;0.10;0.00;;;4.20;98.90;;;;;;21155650;28;20040;-57
2023/01/06 05:58:09;;;;;;;1.95;0.00;;;3.80;99.00;;;;;;21151093;28;20043;-57
2023/01/06 06:08:10;;;;;;;0.00;0.00;;;3.60;99.90;;;;;;21155013;28;20031;-57
2023/01/06 06:18:12;;;;;;;0.03;0.00;;;3.50;99.90;;;;;;21153681;28;20089;-57
2023/01/06 06:28:13;;;;;;;0.05;0.00;;;3.30;99.90;;;;;;21172490;28;20031;-57
2023/01/06 06:38:15;;;;;;;0.10;0.00;;;3.30;99.90;;;;;;21166287;28;20031;-57
2023/01/06 06:48:17;;;;;;;0.00;0.00;;;3.30;99.90;;;;;;21169412;28;20579;-57
2023/01/06 06:58:18;;;;;;;0.10;0.00;;;3.30;99.90;;;;;;21172142;28;20035;-57
2023/01/06 07:08:20;;;;;;;0.00;0.00;;;3.30;99.90;;;;;;21168548;28;20092;-57
2023/01/06 07:18:22;;;;;;;0.00;0.00;;;3.30;99.90;;;;;;21158252;28;20032;-57
2023/01/06 07:28:25;;;;;;;0.20;0.00;;;3.50;99.90;;;;;;21169644;28;20023;-57
2023/01/06 07:38:26;;;;;;;0.15;0.00;;;3.50;99.90;;;;;;21163410;28;20023;-54
2023/01/06 07:48:28;;;;;;;0.00;0.00;;;3.50;99.90;;;;;;21163679;28;20493;-57
2023/01/06 07:58:31;;;;;;;0.28;0.10;;;3.70;99.90;;;;;;21159931;28;20031;-57
2023/01/06 08:08:35;;;;;;;1.08;0.00;;;4.30;99.80;;;;;;21162327;28;20023;-56
2023/01/06 08:18:38;;;;;;;0.25;0.00;;;5.00;99.60;;;;;;21161642;28;20100;-56
2023/01/06 08:28:41;;;;;;;0.47;0.00;;;5.60;98.80;;;;;;21164754;28;20035;-56
2023/01/06 08:38:43;;;;;;;0.03;0.00;;;6.40;98.90;;;;;;21155793;28;20031;-56
2023/01/06 08:48:46;;;;;;;0.47;0.10;;;7.30;98.20;;;;;;21159005;28;20377;-53
2023/01/06 08:58:57;;;;;;;0.75;0.28;;;8.20;96.50;;;;;;21160347;28;20364;-53
2023/01/06 09:08:58;;;;;;;;;;;9.20;96.60;;;;;;21158565;28;20031;-57
2023/01/06 09:19:00;;;;;;;0.55;0.20;;;9.90;95.60;;;;;;21157830;28;19908;-53
2023/01/06 09:29:02;;;;;;;0.22;0.10;;;10.30;95.00;;;;;;21159058;28;20542;-52
2023/01/06 09:39:04;;;;;;;0.57;0.10;;;10.70;95.40;;;;;;21152835;28;20050;-57
2023/01/06 09:49:39;;;;;;;0.10;0.10;;;10.80;94.30;;;;;;21155506;28;20096;-58
2023/01/06 09:59:55;;;;;;;0.70;0.20;;;11.20;95.30;;;;;;21150169;28;20513;-58
2023/01/06 10:10:48;;;;;;;0.63;0.30;;;11.80;95.60;;;;;;21154627;28;20023;-58
2023/01/06 10:20:56;;;;;;;0.38;0.20;;;12.00;93.60;;;;;;20782198;28;20046;-58
2023/01/06 10:31:01;;;;;;;0.55;0.52;;;12.10;91.10;;;;;;20776743;28;20552;-57
2023/01/06 10:41:17;;;;;;;1.38;0.65;;;12.50;94.90;;;;;;20733709;28;20037;-58
2023/01/06 10:51:39;;;;;;;1.35;0.95;;;12.60;94.20;;;;;;20944980;28;20561;-57
2023/01/06 11:01:50;;;;;;;1.70;1.13;;;12.70;95.10;;;;;;21153368;28;20059;-51
2023/01/06 11:11:53;;;;;;;1.77;1.20;;;13.00;93.80;;;;;;21167042;28;20028;-54
2023/01/06 11:21:55;;;;;;;2.92;2.03;;;13.00;93.80;;;;;;21167463;28;20032;-58
2023/01/06 11:32:02;;;;;;;0.30;0.20;;;13.20;94.00;;;;;;21166331;28;20361;-58
2023/01/06 11:42:11;;;;;;;0.15;0.10;;;13.10;89.40;;;;;;21165095;28;20032;-53
2023/01/06 11:52:23;;;;;;;1.70;1.20;;;13.30;85.40;;;;;;21164220;28;20036;-55
2023/01/06 12:02:47;;;;;;;2.22;1.50;;;13.80;91.70;;;;;;21157155;28;20509;-53
2023/01/06 12:12:49;;;;;;;1.50;1.10;;;13.80;90.20;;;;;;21163545;28;20433;-58
2023/01/06 12:23:05;;;;;;;1.00;0.70;;;13.70;91.00;;;;;;21161842;28;20108;-52
2023/01/06 12:33:16;;;;;;;0.68;0.40;;;13.40;85.20;;;;;;21146276;28;20020;-54
2023/01/06 12:43:22;;;;;;;0.30;0.30;;;13.30;84.70;;;;;;21159347;28;20031;-53
2023/01/06 12:53:34;;;;;;;0.90;0.40;;;13.40;86.40;;;;;;21158758;28;20388;-58
2023/01/06 13:03:45;;;;;;;2.97;0.80;;;13.20;84.40;;;;;;21158503;28;20035;-58
2023/01/06 13:13:50;;;;;;;1.38;0.70;;;12.90;87.10;;;;;;21158793;28;20031;-54
2023/01/06 13:24:00;;;;;;;2.22;1.38;;;12.50;85.80;;;;;;21157678;28;20043;-54
2023/01/06 13:34:21;;;;;;;0.75;0.52;;;11.80;88.30;;;;;;21149758;28;20042;-54
2023/01/06 13:44:28;;;;;;;1.05;0.40;;;11.00;86.40;;;;;;21144467;28;20109;-54
2023/01/06 13:54:38;;;;;;;1.80;0.77;;;10.40;86.90;;;;;;21151206;28;20051;-55
2023/01/06 14:04:46;;;;;;;2.60;1.02;;;10.10;88.00;;;;;;21139902;28;20055;-55
2023/01/06 14:15:02;;;;;;;2.72;1.50;;;9.50;87.50;;;;;;21157520;28;20039;-55
2023/01/06 14:25:07;;;;;;;5.28;2.75;;;9.20;91.50;;;;;;21154254;28;20069;-57
2023/01/06 14:35:12;;;;;;;5.55;3.38;;;9.00;93.30;;;;;;21151233;28;20038;-58
2023/01/06 14:45:26;;;;;;;4.15;2.70;;;8.60;94.40;;;;;;21166432;28;20043;-58
2023/01/06 14:55:32;;;;;;;2.20;1.38;;;8.00;95.00;;;;;;21167938;28;20036;-57
2023/01/06 15:05:36;;;;;;;1.33;0.60;;;7.70;94.80;;;;;;21165900;28;20023;-57
2023/01/06 15:15:38;;;;;;;4.38;0.70;;;7.30;95.70;;;;;;21167809;28;20480;-57
2023/01/06 15:25:41;;;;;;;3.88;1.30;;;6.30;96.90;;;;;;21168330;28;20043;-57
2023/01/06 15:35:43;;;;;;;4.00;0.60;;;5.40;98.00;;;;;;21164308;28;20036;-57
2023/01/06 15:45:56;;;;;;;2.25;0.30;;;4.80;99.30;;;;;;21166014;28;20040;-57
2023/01/06 15:55:59;;;;;;;1.55;1.08;;;4.50;99.40;;;;;;21159316;28;20024;-57
2023/01/06 16:06:07;;;;;;;1.92;0.30;;;4.20;99.90;;;;;;21161416;28;20043;-53
2023/01/06 16:16:14;;;;;;;2.05;0.30;;;3.80;99.80;;;;;;21164163;28;20036;-57
2023/01/06 16:26:41;;;;;;;0.40;0.20;;;3.60;99.90;;;;;;21162014;28;20035;-57
2023/01/06 16:36:42;;;;;;;0.60;0.20;;;3.40;99.90;;;;;;21146092;28;20458;-57
2023/01/06 16:46:44;;;;;;;0.85;0.30;;;3.20;99.70;;;;;;21118954;28;20073;-56
2023/01/06 16:56:48;;;;;;;0.60;0.17;;;3.20;99.90;;;;;;21043045;28;20032;-56
2023/01/06 17:06:50;;;;;;;0.25;0.10;;;2.90;99.90;;;;;;21068594;28;20036;-56
2023/01/06 17:16:52;;;;;;;0.35;0.10;;;2.90;99.90;;;;;;21060927;28;20029;-56
2023/01/06 17:27:12;;;;;;;0.30;0.20;;;2.70;99.90;;;;;;21041682;28;20105;-52
2023/01/06 17:37:20;;;;;;;0.17;0.10;;;2.50;99.90;;;;;;21033804;28;20031;-56
2023/01/06 17:47:22;;;;;;;0.32;0.10;;;2.20;99.90;;;;;;21035678;28;20048;-57
2023/01/06 17:57:25;;;;;;;0.63;0.10;;;2.20;99.90;;;;;;20993678;28;20539;-57
2023/01/06 18:07:26;;;;;;;0.20;0.10;;;2.30;99.90;;;;;;21049285;28;20032;-57
2023/01/06 18:17:30;;;;;;;0.40;0.30;;;2.10;99.90;;;;;;21038241;28;20032;-57
2023/01/06 18:27:33;;;;;;;0.73;0.30;;;2.10;99.90;;;;;;21090419;28;20020;-57
2023/01/06 18:37:35;;;;;;;0.10;0.10;;;2.10;99.90;;;;;;21057627;28;20052;-57
2023/01/06 18:47:42;;;;;;;0.28;0.20;;;2.10;99.90;;;;;;21075406;28;20040;-56
2023/01/06 18:57:44;;;;;;;0.38;0.20;;;2.30;99.90;;;;;;21172473;28;20039;-57
2023/01/06 19:07:46;;;;;;;0.40;0.13;;;2.20;99.90;;;;;;21171224;28;20020;-57
2023/01/06 19:17:49;;;;;;;0.28;0.10;;;2.00;99.90;;;;;;21170059;28;20027;-57
2023/01/06 19:27:58;;;;;;;0.10;0.10;;;2.10;99.90;;;;;;21168960;28;20035;-53
2023/01/06 19:38:24;;;;;;;0.68;0.10;;;2.00;99.90;;;;;;21168890;28;20104;-57
2023/01/06 19:48:36;;;;;;;0.70;0.20;;;1.90;99.90;;;;;;21167189;28;20043;-57
2023/01/06 19:58:38;;;;;;;0.30;0.10;;;1.90;99.90;;;;;;21167795;28;20031;-56
2023/01/06 20:08:40;;;;;;;0.30;0.10;;;1.80;99.90;;;;;;21166299;28;20028;-53
2023/01/06 20:18:42;;;;;;;0.38;0.10;;;1.80;99.90;;;;;;21165194;28;20468;-56
2023/01/06 20:28:43;;;;;;;0.60;0.10;;;1.70;99.90;;;;;;21164281;28;20047;-57
2023/01/06 20:38:45;;;;;;;0.80;0.15;;;1.60;99.90;;;;;;21163576;28;20053;-57
2023/01/06 20:48:47;;;;;;;0.52;0.17;;;1.50;99.90;;;;;;21147197;28;20028;-56
2023/01/06 20:58:49;;;;;;;0.60;0.10;;;1.50;99.90;;;;;;21112426;28;20038;-52
2023/01/06 21:08:51;;;;;;;0.38;0.20;;;1.40;99.90;;;;;;21151454;28;20488;-58
2023/01/06 21:18:53;;;;;;;1.45;0.20;;;1.60;99.90;;;;;;21113550;28;20039;-51
2023/01/06 21:28:55;;;;;;;0.40;0.10;;;1.60;99.90;;;;;;21143131;28;20027;-54
2023/01/06 21:38:57;;;;;;;0.30;0.10;;;1.50;99.90;;;;;;21141862;28;20032;-57
2023/01/06 21:48:58;;;;;;;0.30;0.13;;;1.50;99.90;;;;;;21153626;28;20044;-56
2023/01/06 21:59:01;;;;;;;1.52;0.10;;;1.70;99.90;;;;;;21157675;28;20080;-57
2023/01/06 22:09:05;;;;;;;0.20;0.10;;;1.80;99.90;;;;;;21156890;28;20031;-57
2023/01/06 22:19:10;;;;;;;0.47;0.10;;;1.80;99.90;;;;;;21156533;28;20085;-57
2023/01/06 22:29:12;;;;;;;0.17;0.10;;;1.70;99.90;;;;;;21156438;28;20036;-57
2023/01/06 22:39:14;;;;;;;0.15;0.10;;;1.90;99.90;;;;;;21122983;28;20310;-53
2023/01/06 22:49:15;;;;;;;0.30;0.10;;;1.90;99.90;;;;;;21138665;28;20101;-57
2023/01/06 22:59:17;;;;;;;0.30;0.10;;;1.90;99.90;;;;;;21155553;28;20028;-50
2023/01/06 23:09:18;;;;;;;0.20;0.10;;;2.00;99.90;;;;;;21162312;28;20551;-57
2023/01/06 23:19:20;;;;;;;0.50;0.10;;;2.00;99.90;;;;;;21135630;28;20028;-52
2023/01/06 23:29:22;;;;;;;0.60;0.10;;;1.80;99.90;;;;;;21118838;28;20054;-57
2023/01/06 23:39:24;;;;;;;0.28;0.10;;;1.60;99.90;;;;;;21109102;28;20054;-53
2023/01/06 23:49:26;;;;;;;0.60;0.30;;;1.30;99.90;;;;;;21118820;28;20400;-54
2023/01/06 23:59:27;;;;;;;0.38;0.10;;;1.30;99.90;;;;;;21144235;28;20036;-51
